sensor_id;sensor_type;location;lat;lon;timestamp;temperature;humidity
34145;HTU21D;69555;53.014;8.886;2023-07-20T00:01:29;16.60;82.18
34145;HTU21D;69555;53.014;8.886;2023-07-20T00:03:55;16.47;82.87
34145;HTU21D;69555;53.014;8.886;2023-07-20T00:06:21;16.42;82.87
34145;HTU21D;69555;53.014;8.886;2023-07-20T00:08:47;16.25;83.77
34145;HTU21D;69555;53.014;8.886;2023-07-20T00:11:13;16.51;82.69
34145;HTU21D;69555;53.014;8.886;2023-07-20T00:13:40;16.64;82.39
34145;HTU21D;69555;53.014;8.886;2023-07-20T00:16:07;16.85;81.77
34145;HTU21D;69555;53.014;8.886;2023-07-20T00:18:34;16.65;82.53
34145;HTU21D;69555;53.014;8.886;2023-07-20T00:21:00;16.74;81.88
34145;HTU21D;69555;53.014;8.886;2023-07-20T00:23:27;16.74;81.68
34145;HTU21D;69555;53.014;8.886;2023-07-20T00:25:53;16.63;81.52
34145;HTU21D;69555;53.014;8.886;2023-07-20T00:28:20;16.41;82.68
34145;HTU21D;69555;53.014;8.886;2023-07-20T00:30:47;16.08;83.80
34145;HTU21D;69555;53.014;8.886;2023-07-20T00:33:17;16.36;82.65
34145;HTU21D;69555;53.014;8.886;2023-07-20T00:35:44;16.11;83.71
34145;HTU21D;69555;53.014;8.886;2023-07-20T00:38:11;16.10;83.55
34145;HTU21D;69555;53.014;8.886;2023-07-20T00:40:39;15.84;84.81
34145;HTU21D;69555;53.014;8.886;2023-07-20T00:43:06;15.74;85.71
34145;HTU21D;69555;53.014;8.886;2023-07-20T00:45:34;15.72;85.96
34145;HTU21D;69555;53.014;8.886;2023-07-20T00:48:01;15.67;85.84
34145;HTU21D;69555;53.014;8.886;2023-07-20T00:50:28;16.00;84.50
34145;HTU21D;69555;53.014;8.886;2023-07-20T00:52:56;15.92;84.84
34145;HTU21D;69555;53.014;8.886;2023-07-20T00:55:24;15.72;85.80
34145;HTU21D;69555;53.014;8.886;2023-07-20T00:57:51;15.80;85.55
34145;HTU21D;69555;53.014;8.886;2023-07-20T01:00:19;15.53;86.85
34145;HTU21D;69555;53.014;8.886;2023-07-20T01:02:46;15.77;86.02
34145;HTU21D;69555;53.014;8.886;2023-07-20T01:05:13;15.95;85.28
34145;HTU21D;69555;53.014;8.886;2023-07-20T01:08:11;15.75;85.43
34145;HTU21D;69555;53.014;8.886;2023-07-20T01:10:58;15.63;86.33
34145;HTU21D;69555;53.014;8.886;2023-07-20T01:13:26;15.70;85.88
34145;HTU21D;69555;53.014;8.886;2023-07-20T01:16:02;15.63;86.47
34145;HTU21D;69555;53.014;8.886;2023-07-20T01:18:29;15.58;87.03
34145;HTU21D;69555;53.014;8.886;2023-07-20T01:21:13;15.39;88.96
34145;HTU21D;69555;53.014;8.886;2023-07-20T01:24:19;15.24;90.11
34145;HTU21D;69555;53.014;8.886;2023-07-20T01:30:34;14.86;93.02
34145;HTU21D;69555;53.014;8.886;2023-07-20T01:33:09;15.12;91.47
34145;HTU21D;69555;53.014;8.886;2023-07-20T01:35:38;15.43;90.24
34145;HTU21D;69555;53.014;8.886;2023-07-20T01:38:06;15.37;90.67
34145;HTU21D;69555;53.014;8.886;2023-07-20T01:40:34;15.36;91.12
34145;HTU21D;69555;53.014;8.886;2023-07-20T01:43:02;15.27;91.72
34145;HTU21D;69555;53.014;8.886;2023-07-20T01:45:29;15.25;92.15
34145;HTU21D;69555;53.014;8.886;2023-07-20T01:47:56;15.54;90.77
34145;HTU21D;69555;53.014;8.886;2023-07-20T01:50:25;15.45;90.86
34145;HTU21D;69555;53.014;8.886;2023-07-20T01:52:51;15.30;91.63
34145;HTU21D;69555;53.014;8.886;2023-07-20T01:55:18;15.47;90.90
34145;HTU21D;69555;53.014;8.886;2023-07-20T01:57:44;15.65;90.05
34145;HTU21D;69555;53.014;8.886;2023-07-20T02:00:12;15.57;90.67
34145;HTU21D;69555;53.014;8.886;2023-07-20T02:02:38;15.72;90.18
34145;HTU21D;69555;53.014;8.886;2023-07-20T02:05:05;15.71;89.84
34145;HTU21D;69555;53.014;8.886;2023-07-20T02:07:32;15.78;89.75
34145;HTU21D;69555;53.014;8.886;2023-07-20T02:09:59;15.60;90.29
34145;HTU21D;69555;53.014;8.886;2023-07-20T02:12:24;15.33;91.44
34145;HTU21D;69555;53.014;8.886;2023-07-20T02:14:51;15.32;91.63
34145;HTU21D;69555;53.014;8.886;2023-07-20T02:17:18;15.43;91.14
34145;HTU21D;69555;53.014;8.886;2023-07-20T02:19:44;15.49;90.82
34145;HTU21D;69555;53.014;8.886;2023-07-20T02:22:11;15.52;90.60
34145;HTU21D;69555;53.014;8.886;2023-07-20T02:24:37;15.51;91.08
34145;HTU21D;69555;53.014;8.886;2023-07-20T02:27:02;15.41;91.02
34145;HTU21D;69555;53.014;8.886;2023-07-20T02:29:29;15.33;91.72
34145;HTU21D;69555;53.014;8.886;2023-07-20T02:31:54;15.00;93.89
34145;HTU21D;69555;53.014;8.886;2023-07-20T02:34:21;15.25;92.37
34145;HTU21D;69555;53.014;8.886;2023-07-20T02:36:48;15.14;93.11
34145;HTU21D;69555;53.014;8.886;2023-07-20T02:39:13;14.98;94.10
34145;HTU21D;69555;53.014;8.886;2023-07-20T02:41:41;15.18;93.09
34145;HTU21D;69555;53.014;8.886;2023-07-20T02:44:08;14.94;94.29
34145;HTU21D;69555;53.014;8.886;2023-07-20T02:46:34;14.68;95.74
34145;HTU21D;69555;53.014;8.886;2023-07-20T02:49:01;14.92;94.46
34145;HTU21D;69555;53.014;8.886;2023-07-20T02:51:28;15.18;93.39
34145;HTU21D;69555;53.014;8.886;2023-07-20T02:53:55;15.41;92.18
34145;HTU21D;69555;53.014;8.886;2023-07-20T02:56:22;15.61;90.98
34145;HTU21D;69555;53.014;8.886;2023-07-20T02:58:49;15.81;89.96
34145;HTU21D;69555;53.014;8.886;2023-07-20T03:01:16;15.55;91.23
34145;HTU21D;69555;53.014;8.886;2023-07-20T03:03:42;15.62;90.72
34145;HTU21D;69555;53.014;8.886;2023-07-20T03:06:18;15.66;90.53
34145;HTU21D;69555;53.014;8.886;2023-07-20T03:08:44;15.65;90.73
34145;HTU21D;69555;53.014;8.886;2023-07-20T03:11:14;15.95;89.02
34145;HTU21D;69555;53.014;8.886;2023-07-20T03:13:43;15.72;89.86
34145;HTU21D;69555;53.014;8.886;2023-07-20T03:16:11;15.54;90.63
34145;HTU21D;69555;53.014;8.886;2023-07-20T03:18:39;15.43;91.16
34145;HTU21D;69555;53.014;8.886;2023-07-20T03:21:07;15.74;90.05
34145;HTU21D;69555;53.014;8.886;2023-07-20T03:23:34;15.57;90.61
34145;HTU21D;69555;53.014;8.886;2023-07-20T03:26:00;15.53;91.12
34145;HTU21D;69555;53.014;8.886;2023-07-20T03:28:27;15.88;89.50
34145;HTU21D;69555;53.014;8.886;2023-07-20T03:30:54;15.84;89.80
34145;HTU21D;69555;53.014;8.886;2023-07-20T03:33:24;15.81;89.79
34145;HTU21D;69555;53.014;8.886;2023-07-20T03:35:51;15.87;89.34
34145;HTU21D;69555;53.014;8.886;2023-07-20T03:38:18;15.85;89.72
34145;HTU21D;69555;53.014;8.886;2023-07-20T03:40:55;15.86;89.24
34145;HTU21D;69555;53.014;8.886;2023-07-20T03:43:22;16.07;88.68
34145;HTU21D;69555;53.014;8.886;2023-07-20T03:45:49;15.81;89.48
34145;HTU21D;69555;53.014;8.886;2023-07-20T03:48:23;15.85;89.61
34145;HTU21D;69555;53.014;8.886;2023-07-20T03:50:52;15.69;90.47
34145;HTU21D;69555;53.014;8.886;2023-07-20T03:53:18;15.71;89.76
34145;HTU21D;69555;53.014;8.886;2023-07-20T03:55:51;15.36;91.49
34145;HTU21D;69555;53.014;8.886;2023-07-20T03:58:18;15.59;90.65
34145;HTU21D;69555;53.014;8.886;2023-07-20T04:00:51;15.59;91.31
34145;HTU21D;69555;53.014;8.886;2023-07-20T04:03:18;15.76;89.91
34145;HTU21D;69555;53.014;8.886;2023-07-20T04:05:45;15.42;91.71
34145;HTU21D;69555;53.014;8.886;2023-07-20T04:08:12;15.68;90.33
34145;HTU21D;69555;53.014;8.886;2023-07-20T04:10:39;15.74;90.25
34145;HTU21D;69555;53.014;8.886;2023-07-20T04:13:05;15.43;91.57
34145;HTU21D;69555;53.014;8.886;2023-07-20T04:15:33;15.66;90.55
34145;HTU21D;69555;53.014;8.886;2023-07-20T04:18:00;15.68;90.47
34145;HTU21D;69555;53.014;8.886;2023-07-20T04:20:27;15.56;90.89
34145;HTU21D;69555;53.014;8.886;2023-07-20T04:22:54;15.91;89.44
34145;HTU21D;69555;53.014;8.886;2023-07-20T04:25:20;15.76;90.05
34145;HTU21D;69555;53.014;8.886;2023-07-20T04:27:46;15.62;90.65
34145;HTU21D;69555;53.014;8.886;2023-07-20T04:30:13;15.49;91.34
34145;HTU21D;69555;53.014;8.886;2023-07-20T04:32:40;15.61;90.91
34145;HTU21D;69555;53.014;8.886;2023-07-20T04:35:17;15.47;91.50
34145;HTU21D;69555;53.014;8.886;2023-07-20T04:37:43;15.46;92.02
34145;HTU21D;69555;53.014;8.886;2023-07-20T04:40:15;15.86;90.29
34145;HTU21D;69555;53.014;8.886;2023-07-20T04:42:42;15.63;91.19
34145;HTU21D;69555;53.014;8.886;2023-07-20T04:45:09;15.53;90.91
34145;HTU21D;69555;53.014;8.886;2023-07-20T04:47:36;15.57;91.21
34145;HTU21D;69555;53.014;8.886;2023-07-20T04:50:02;15.51;91.75
34145;HTU21D;69555;53.014;8.886;2023-07-20T04:52:29;15.62;91.25
34145;HTU21D;69555;53.014;8.886;2023-07-20T04:54:54;16.10;89.93
34145;HTU21D;69555;53.014;8.886;2023-07-20T04:57:26;16.46;88.51
34145;HTU21D;69555;53.014;8.886;2023-07-20T04:59:53;17.11;86.64
34145;HTU21D;69555;53.014;8.886;2023-07-20T05:02:19;18.29;81.00
34145;HTU21D;69555;53.014;8.886;2023-07-20T05:04:46;18.79;78.79
34145;HTU21D;69555;53.014;8.886;2023-07-20T05:07:12;18.42;79.83
34145;HTU21D;69555;53.014;8.886;2023-07-20T05:09:39;18.64;78.54
34145;HTU21D;69555;53.014;8.886;2023-07-20T05:12:05;18.79;77.11
34145;HTU21D;69555;53.014;8.886;2023-07-20T05:14:32;18.63;77.24
34145;HTU21D;69555;53.014;8.886;2023-07-20T05:17:00;18.58;77.61
34145;HTU21D;69555;53.014;8.886;2023-07-20T05:19:27;19.01;76.50
34145;HTU21D;69555;53.014;8.886;2023-07-20T05:21:53;19.36;74.82
34145;HTU21D;69555;53.014;8.886;2023-07-20T05:24:20;19.50;74.34
34145;HTU21D;69555;53.014;8.886;2023-07-20T05:26:48;21.42;67.47
34145;HTU21D;69555;53.014;8.886;2023-07-20T05:29:13;23.49;60.41
34145;HTU21D;69555;53.014;8.886;2023-07-20T05:31:40;25.92;53.17
34145;HTU21D;69555;53.014;8.886;2023-07-20T05:34:06;28.73;46.01
34145;HTU21D;69555;53.014;8.886;2023-07-20T05:36:33;29.04;43.58
34145;HTU21D;69555;53.014;8.886;2023-07-20T05:39:00;27.54;47.04
34145;HTU21D;69555;53.014;8.886;2023-07-20T05:41:26;27.73;46.70
34145;HTU21D;69555;53.014;8.886;2023-07-20T05:43:53;29.90;41.56
34145;HTU21D;69555;53.014;8.886;2023-07-20T05:46:20;33.04;35.45
34145;HTU21D;69555;53.014;8.886;2023-07-20T05:48:46;33.44;33.62
34145;HTU21D;69555;53.014;8.886;2023-07-20T05:51:13;33.73;32.87
34145;HTU21D;69555;53.014;8.886;2023-07-20T05:53:40;34.00;30.51
34145;HTU21D;69555;53.014;8.886;2023-07-20T05:56:07;34.25;31.03
34145;HTU21D;69555;53.014;8.886;2023-07-20T05:58:36;33.34;32.48
34145;HTU21D;69555;53.014;8.886;2023-07-20T06:01:03;33.44;32.86
34145;HTU21D;69555;53.014;8.886;2023-07-20T06:03:32;31.78;36.00
34145;HTU21D;69555;53.014;8.886;2023-07-20T06:06:01;33.30;32.87
34145;HTU21D;69555;53.014;8.886;2023-07-20T06:08:31;31.43;35.98
34145;HTU21D;69555;53.014;8.886;2023-07-20T06:10:58;33.09;32.66
34145;HTU21D;69555;53.014;8.886;2023-07-20T06:13:24;33.72;31.49
34145;HTU21D;69555;53.014;8.886;2023-07-20T06:15:51;33.58;30.81
34145;HTU21D;69555;53.014;8.886;2023-07-20T06:18:18;33.97;30.14
34145;HTU21D;69555;53.014;8.886;2023-07-20T06:20:49;33.05;31.48
34145;HTU21D;69555;53.014;8.886;2023-07-20T06:23:17;32.89;31.32
34145;HTU21D;69555;53.014;8.886;2023-07-20T06:25:42;33.70;30.74
34145;HTU21D;69555;53.014;8.886;2023-07-20T06:28:07;34.35;29.63
34145;HTU21D;69555;53.014;8.886;2023-07-20T06:30:34;36.02;26.67
34145;HTU21D;69555;53.014;8.886;2023-07-20T06:33:00;35.11;28.17
34145;HTU21D;69555;53.014;8.886;2023-07-20T06:35:25;36.13;26.62
34145;HTU21D;69555;53.014;8.886;2023-07-20T06:37:51;34.79;28.18
34145;HTU21D;69555;53.014;8.886;2023-07-20T06:40:17;34.39;28.96
34145;HTU21D;69555;53.014;8.886;2023-07-20T06:42:43;36.61;25.53
34145;HTU21D;69555;53.014;8.886;2023-07-20T06:45:08;36.39;25.16
34145;HTU21D;69555;53.014;8.886;2023-07-20T06:47:34;37.36;24.94
34145;HTU21D;69555;53.014;8.886;2023-07-20T06:49:59;34.79;28.18
34145;HTU21D;69555;53.014;8.886;2023-07-20T06:52:25;33.23;30.65
34145;HTU21D;69555;53.014;8.886;2023-07-20T06:54:50;34.24;29.35
34145;HTU21D;69555;53.014;8.886;2023-07-20T06:57:16;32.27;32.67
34145;HTU21D;69555;53.014;8.886;2023-07-20T06:59:41;28.45;39.40
34145;HTU21D;69555;53.014;8.886;2023-07-20T07:02:08;31.34;33.87
34145;HTU21D;69555;53.014;8.886;2023-07-20T07:04:35;33.23;30.80
34145;HTU21D;69555;53.014;8.886;2023-07-20T07:07:02;29.83;35.92
34145;HTU21D;69555;53.014;8.886;2023-07-20T07:09:30;29.68;37.33
34145;HTU21D;69555;53.014;8.886;2023-07-20T07:11:55;26.87;42.24
34145;HTU21D;69555;53.014;8.886;2023-07-20T07:14:22;27.58;41.05
34145;HTU21D;69555;53.014;8.886;2023-07-20T07:16:47;29.41;38.03
34145;HTU21D;69555;53.014;8.886;2023-07-20T07:19:13;31.15;33.99
34145;HTU21D;69555;53.014;8.886;2023-07-20T07:21:38;32.66;31.60
34145;HTU21D;69555;53.014;8.886;2023-07-20T07:24:05;33.37;30.03
34145;HTU21D;69555;53.014;8.886;2023-07-20T07:26:33;30.74;34.41
34145;HTU21D;69555;53.014;8.886;2023-07-20T07:29:00;33.95;28.98
34145;HTU21D;69555;53.014;8.886;2023-07-20T07:31:26;32.84;29.53
34145;HTU21D;69555;53.014;8.886;2023-07-20T07:33:52;31.30;33.44
34145;HTU21D;69555;53.014;8.886;2023-07-20T07:36:18;31.30;33.01
34145;HTU21D;69555;53.014;8.886;2023-07-20T07:38:44;29.86;36.47
34145;HTU21D;69555;53.014;8.886;2023-07-20T07:41:11;28.53;38.24
34145;HTU21D;69555;53.014;8.886;2023-07-20T07:43:37;26.95;40.94
34145;HTU21D;69555;53.014;8.886;2023-07-20T07:46:05;28.67;38.64
34145;HTU21D;69555;53.014;8.886;2023-07-20T07:48:31;32.28;32.38
34145;HTU21D;69555;53.014;8.886;2023-07-20T07:50:57;32.78;30.59
34145;HTU21D;69555;53.014;8.886;2023-07-20T07:53:23;34.22;29.41
34145;HTU21D;69555;53.014;8.886;2023-07-20T07:55:52;32.31;30.54
34145;HTU21D;69555;53.014;8.886;2023-07-20T07:58:18;31.96;31.01
34145;HTU21D;69555;53.014;8.886;2023-07-20T08:00:44;29.87;35.13
34145;HTU21D;69555;53.014;8.886;2023-07-20T08:03:11;31.90;32.48
34145;HTU21D;69555;53.014;8.886;2023-07-20T08:05:38;32.18;32.06
34145;HTU21D;69555;53.014;8.886;2023-07-20T08:08:05;29.04;36.28
34145;HTU21D;69555;53.014;8.886;2023-07-20T08:10:31;27.45;39.46
34145;HTU21D;69555;53.014;8.886;2023-07-20T08:12:58;28.11;38.63
34145;HTU21D;69555;53.014;8.886;2023-07-20T08:15:23;31.45;32.89
34145;HTU21D;69555;53.014;8.886;2023-07-20T08:17:49;30.30;36.19
34145;HTU21D;69555;53.014;8.886;2023-07-20T08:20:18;30.20;34.34
34145;HTU21D;69555;53.014;8.886;2023-07-20T08:22:44;29.96;34.05
34145;HTU21D;69555;53.014;8.886;2023-07-20T08:25:11;29.38;35.11
34145;HTU21D;69555;53.014;8.886;2023-07-20T08:27:38;31.73;33.02
34145;HTU21D;69555;53.014;8.886;2023-07-20T08:30:04;29.19;38.24
34145;HTU21D;69555;53.014;8.886;2023-07-20T08:32:32;29.14;36.91
34145;HTU21D;69555;53.014;8.886;2023-07-20T08:34:59;27.13;39.81
34145;HTU21D;69555;53.014;8.886;2023-07-20T08:37:24;28.62;38.15
34145;HTU21D;69555;53.014;8.886;2023-07-20T08:39:50;27.57;40.72
34145;HTU21D;69555;53.014;8.886;2023-07-20T08:42:16;28.30;38.73
34145;HTU21D;69555;53.014;8.886;2023-07-20T08:44:42;26.87;41.99
34145;HTU21D;69555;53.014;8.886;2023-07-20T08:47:10;27.01;40.27
34145;HTU21D;69555;53.014;8.886;2023-07-20T08:49:39;25.80;43.70
34145;HTU21D;69555;53.014;8.886;2023-07-20T08:52:05;26.66;42.75
34145;HTU21D;69555;53.014;8.886;2023-07-20T08:54:31;25.93;43.29
34145;HTU21D;69555;53.014;8.886;2023-07-20T08:57:04;24.83;45.49
34145;HTU21D;69555;53.014;8.886;2023-07-20T08:59:30;24.72;46.52
34145;HTU21D;69555;53.014;8.886;2023-07-20T09:01:58;25.00;45.05
34145;HTU21D;69555;53.014;8.886;2023-07-20T09:04:23;24.48;46.25
34145;HTU21D;69555;53.014;8.886;2023-07-20T09:06:50;24.10;48.06
34145;HTU21D;69555;53.014;8.886;2023-07-20T09:09:16;23.65;49.93
34145;HTU21D;69555;53.014;8.886;2023-07-20T09:11:41;24.36;48.79
34145;HTU21D;69555;53.014;8.886;2023-07-20T09:14:08;24.41;50.05
34145;HTU21D;69555;53.014;8.886;2023-07-20T09:16:52;23.57;50.18
34145;HTU21D;69555;53.014;8.886;2023-07-20T09:19:18;24.04;52.72
34145;HTU21D;69555;53.014;8.886;2023-07-20T09:21:48;24.36;48.37
34145;HTU21D;69555;53.014;8.886;2023-07-20T09:24:15;24.12;47.28
34145;HTU21D;69555;53.014;8.886;2023-07-20T09:26:42;23.44;51.28
34145;HTU21D;69555;53.014;8.886;2023-07-20T09:29:08;23.23;51.04
34145;HTU21D;69555;53.014;8.886;2023-07-20T09:31:37;23.44;49.56
34145;HTU21D;69555;53.014;8.886;2023-07-20T09:34:04;24.08;50.31
34145;HTU21D;69555;53.014;8.886;2023-07-20T09:36:33;24.23;47.55
34145;HTU21D;69555;53.014;8.886;2023-07-20T09:38:59;24.29;50.21
34145;HTU21D;69555;53.014;8.886;2023-07-20T09:41:25;23.96;46.22
34145;HTU21D;69555;53.014;8.886;2023-07-20T09:43:52;23.50;48.36
34145;HTU21D;69555;53.014;8.886;2023-07-20T09:46:18;23.39;48.37
34145;HTU21D;69555;53.014;8.886;2023-07-20T09:48:54;23.49;50.30
34145;HTU21D;69555;53.014;8.886;2023-07-20T09:51:23;23.56;51.06
34145;HTU21D;69555;53.014;8.886;2023-07-20T09:53:52;23.22;50.64
34145;HTU21D;69555;53.014;8.886;2023-07-20T09:56:21;23.32;49.21
34145;HTU21D;69555;53.014;8.886;2023-07-20T09:58:46;22.09;53.64
34145;HTU21D;69555;53.014;8.886;2023-07-20T10:01:13;22.61;53.31
34145;HTU21D;69555;53.014;8.886;2023-07-20T10:03:42;23.08;53.03
34145;HTU21D;69555;53.014;8.886;2023-07-20T10:06:13;23.59;53.30
34145;HTU21D;69555;53.014;8.886;2023-07-20T10:08:41;23.71;49.63
34145;HTU21D;69555;53.014;8.886;2023-07-20T10:11:07;23.45;49.59
34145;HTU21D;69555;53.014;8.886;2023-07-20T10:13:37;23.76;53.69
34145;HTU21D;69555;53.014;8.886;2023-07-20T10:16:03;23.68;48.89
34145;HTU21D;69555;53.014;8.886;2023-07-20T10:18:51;23.25;49.52
34145;HTU21D;69555;53.014;8.886;2023-07-20T10:21:17;22.85;48.04
34145;HTU21D;69555;53.014;8.886;2023-07-20T10:23:45;23.21;48.50
34145;HTU21D;69555;53.014;8.886;2023-07-20T10:26:11;23.23;51.14
34145;HTU21D;69555;53.014;8.886;2023-07-20T10:28:38;22.07;54.73
34145;HTU21D;69555;53.014;8.886;2023-07-20T10:31:03;21.30;58.73
34145;HTU21D;69555;53.014;8.886;2023-07-20T10:33:29;20.80;63.70
34145;HTU21D;69555;53.014;8.886;2023-07-20T10:36:02;19.82;67.78
34145;HTU21D;69555;53.014;8.886;2023-07-20T10:38:39;19.79;68.86
34145;HTU21D;69555;53.014;8.886;2023-07-20T10:41:38;19.59;69.87
34145;HTU21D;69555;53.014;8.886;2023-07-20T10:44:02;19.96;68.46
34145;HTU21D;69555;53.014;8.886;2023-07-20T10:49:09;20.53;69.74
34145;HTU21D;69555;53.014;8.886;2023-07-20T10:51:39;20.95;66.59
34145;HTU21D;69555;53.014;8.886;2023-07-20T10:54:53;21.27;67.04
34145;HTU21D;69555;53.014;8.886;2023-07-20T10:56:55;21.58;62.79
34145;HTU21D;69555;53.014;8.886;2023-07-20T10:59:41;21.50;61.80
34145;HTU21D;69555;53.014;8.886;2023-07-20T11:02:07;21.54;64.72
34145;HTU21D;69555;53.014;8.886;2023-07-20T11:04:46;21.85;63.24
34145;HTU21D;69555;53.014;8.886;2023-07-20T11:07:15;22.24;68.07
34145;HTU21D;69555;53.014;8.886;2023-07-20T11:09:42;22.19;60.63
34145;HTU21D;69555;53.014;8.886;2023-07-20T11:12:11;21.99;60.46
34145;HTU21D;69555;53.014;8.886;2023-07-20T11:14:43;22.62;56.68
34145;HTU21D;69555;53.014;8.886;2023-07-20T11:17:13;22.66;57.16
34145;HTU21D;69555;53.014;8.886;2023-07-20T11:19:39;22.21;53.33
34145;HTU21D;69555;53.014;8.886;2023-07-20T11:22:09;22.06;58.33
34145;HTU21D;69555;53.014;8.886;2023-07-20T11:24:38;22.24;55.72
34145;HTU21D;69555;53.014;8.886;2023-07-20T11:27:05;22.61;57.77
34145;HTU21D;69555;53.014;8.886;2023-07-20T11:29:30;22.96;57.35
34145;HTU21D;69555;53.014;8.886;2023-07-20T11:31:56;23.27;57.09
34145;HTU21D;69555;53.014;8.886;2023-07-20T11:34:22;22.46;57.61
34145;HTU21D;69555;53.014;8.886;2023-07-20T11:36:49;22.82;59.69
34145;HTU21D;69555;53.014;8.886;2023-07-20T11:39:16;23.02;56.71
34145;HTU21D;69555;53.014;8.886;2023-07-20T11:41:50;23.52;55.61
34145;HTU21D;69555;53.014;8.886;2023-07-20T11:44:16;22.81;54.42
34145;HTU21D;69555;53.014;8.886;2023-07-20T11:46:42;23.32;55.64
34145;HTU21D;69555;53.014;8.886;2023-07-20T11:49:09;22.99;56.65
34145;HTU21D;69555;53.014;8.886;2023-07-20T11:51:35;23.16;54.62
34145;HTU21D;69555;53.014;8.886;2023-07-20T11:54:02;23.44;52.99
34145;HTU21D;69555;53.014;8.886;2023-07-20T11:56:28;23.15;54.01
34145;HTU21D;69555;53.014;8.886;2023-07-20T11:58:58;23.16;57.53
34145;HTU21D;69555;53.014;8.886;2023-07-20T12:01:26;23.34;54.84
34145;HTU21D;69555;53.014;8.886;2023-07-20T12:03:57;23.21;52.81
34145;HTU21D;69555;53.014;8.886;2023-07-20T12:06:24;23.43;54.10
34145;HTU21D;69555;53.014;8.886;2023-07-20T12:08:50;23.05;50.79
34145;HTU21D;69555;53.014;8.886;2023-07-20T12:11:35;23.41;54.27
34145;HTU21D;69555;53.014;8.886;2023-07-20T12:14:01;23.26;50.78
34145;HTU21D;69555;53.014;8.886;2023-07-20T12:16:28;23.52;50.03
34145;HTU21D;69555;53.014;8.886;2023-07-20T12:19:08;23.72;51.24
34145;HTU21D;69555;53.014;8.886;2023-07-20T12:21:36;23.86;49.72
34145;HTU21D;69555;53.014;8.886;2023-07-20T12:24:04;24.16;51.54
34145;HTU21D;69555;53.014;8.886;2023-07-20T12:26:32;23.50;49.90
34145;HTU21D;69555;53.014;8.886;2023-07-20T12:28:59;22.17;56.35
34145;HTU21D;69555;53.014;8.886;2023-07-20T12:31:26;21.21;61.67
34145;HTU21D;69555;53.014;8.886;2023-07-20T12:33:54;21.21;61.63
34145;HTU21D;69555;53.014;8.886;2023-07-20T12:36:21;21.23;64.02
34145;HTU21D;69555;53.014;8.886;2023-07-20T12:38:48;21.16;63.98
34145;HTU21D;69555;53.014;8.886;2023-07-20T12:41:14;21.00;65.01
34145;HTU21D;69555;53.014;8.886;2023-07-20T12:43:43;20.77;65.65
34145;HTU21D;69555;53.014;8.886;2023-07-20T12:46:10;21.03;64.62
34145;HTU21D;69555;53.014;8.886;2023-07-20T12:48:37;20.85;63.94
34145;HTU21D;69555;53.014;8.886;2023-07-20T12:51:03;21.18;62.06
34145;HTU21D;69555;53.014;8.886;2023-07-20T12:53:30;20.96;62.89
34145;HTU21D;69555;53.014;8.886;2023-07-20T12:55:55;21.13;59.36
34145;HTU21D;69555;53.014;8.886;2023-07-20T12:58:21;20.70;61.21
34145;HTU21D;69555;53.014;8.886;2023-07-20T13:00:46;20.73;61.09
34145;HTU21D;69555;53.014;8.886;2023-07-20T13:03:11;20.71;59.41
34145;HTU21D;69555;53.014;8.886;2023-07-20T13:05:37;20.98;58.34
34145;HTU21D;69555;53.014;8.886;2023-07-20T13:08:02;20.93;55.49
34145;HTU21D;69555;53.014;8.886;2023-07-20T13:10:28;20.59;55.34
34145;HTU21D;69555;53.014;8.886;2023-07-20T13:12:54;20.77;56.00
34145;HTU21D;69555;53.014;8.886;2023-07-20T13:15:20;20.55;58.05
34145;HTU21D;69555;53.014;8.886;2023-07-20T13:17:46;20.65;55.84
34145;HTU21D;69555;53.014;8.886;2023-07-20T13:20:11;20.66;57.24
34145;HTU21D;69555;53.014;8.886;2023-07-20T13:22:38;20.66;56.98
34145;HTU21D;69555;53.014;8.886;2023-07-20T13:25:03;21.17;56.59
34145;HTU21D;69555;53.014;8.886;2023-07-20T13:27:29;21.01;57.42
34145;HTU21D;69555;53.014;8.886;2023-07-20T13:29:56;21.01;56.49
34145;HTU21D;69555;53.014;8.886;2023-07-20T13:32:22;20.91;55.33
34145;HTU21D;69555;53.014;8.886;2023-07-20T13:34:47;20.88;57.63
34145;HTU21D;69555;53.014;8.886;2023-07-20T13:37:13;20.90;57.67
34145;HTU21D;69555;53.014;8.886;2023-07-20T13:39:39;20.91;57.65
34145;HTU21D;69555;53.014;8.886;2023-07-20T13:42:05;21.04;58.63
34145;HTU21D;69555;53.014;8.886;2023-07-20T13:44:31;21.38;56.05
34145;HTU21D;69555;53.014;8.886;2023-07-20T13:46:57;21.38;56.64
34145;HTU21D;69555;53.014;8.886;2023-07-20T13:49:22;21.63;56.25
34145;HTU21D;69555;53.014;8.886;2023-07-20T13:51:48;21.53;57.29
34145;HTU21D;69555;53.014;8.886;2023-07-20T13:54:13;21.43;56.83
34145;HTU21D;69555;53.014;8.886;2023-07-20T13:56:38;21.24;57.07
34145;HTU21D;69555;53.014;8.886;2023-07-20T13:59:04;21.34;54.09
34145;HTU21D;69555;53.014;8.886;2023-07-20T14:01:29;21.72;53.78
34145;HTU21D;69555;53.014;8.886;2023-07-20T14:03:58;22.07;54.49
34145;HTU21D;69555;53.014;8.886;2023-07-20T14:06:23;22.84;51.50
34145;HTU21D;69555;53.014;8.886;2023-07-20T14:08:50;22.90;53.76
34145;HTU21D;69555;53.014;8.886;2023-07-20T14:11:16;22.19;54.46
34145;HTU21D;69555;53.014;8.886;2023-07-20T14:13:43;22.22;54.04
34145;HTU21D;69555;53.014;8.886;2023-07-20T14:16:10;21.72;56.31
34145;HTU21D;69555;53.014;8.886;2023-07-20T14:18:36;21.72;57.71
34145;HTU21D;69555;53.014;8.886;2023-07-20T14:21:02;21.37;56.96
34145;HTU21D;69555;53.014;8.886;2023-07-20T14:23:31;22.22;55.29
34145;HTU21D;69555;53.014;8.886;2023-07-20T14:25:57;21.90;54.86
34145;HTU21D;69555;53.014;8.886;2023-07-20T14:28:23;22.18;54.51
34145;HTU21D;69555;53.014;8.886;2023-07-20T14:30:49;22.06;54.30
34145;HTU21D;69555;53.014;8.886;2023-07-20T14:33:16;22.34;57.21
34145;HTU21D;69555;53.014;8.886;2023-07-20T14:35:43;21.78;56.79
34145;HTU21D;69555;53.014;8.886;2023-07-20T14:38:10;21.44;57.93
34145;HTU21D;69555;53.014;8.886;2023-07-20T14:40:35;21.63;56.84
34145;HTU21D;69555;53.014;8.886;2023-07-20T14:43:02;21.70;56.68
34145;HTU21D;69555;53.014;8.886;2023-07-20T14:45:29;21.68;52.02
34145;HTU21D;69555;53.014;8.886;2023-07-20T14:47:56;21.84;52.23
34145;HTU21D;69555;53.014;8.886;2023-07-20T14:50:23;21.81;51.06
34145;HTU21D;69555;53.014;8.886;2023-07-20T14:52:48;21.47;56.50
34145;HTU21D;69555;53.014;8.886;2023-07-20T14:55:15;21.42;56.29
34145;HTU21D;69555;53.014;8.886;2023-07-20T14:57:43;21.27;59.53
34145;HTU21D;69555;53.014;8.886;2023-07-20T15:00:09;21.79;57.68
34145;HTU21D;69555;53.014;8.886;2023-07-20T15:02:42;21.80;55.81
34145;HTU21D;69555;53.014;8.886;2023-07-20T15:05:09;21.39;57.80
34145;HTU21D;69555;53.014;8.886;2023-07-20T15:07:37;21.30;56.01
34145;HTU21D;69555;53.014;8.886;2023-07-20T15:10:05;21.44;56.16
34145;HTU21D;69555;53.014;8.886;2023-07-20T15:12:31;21.78;54.20
34145;HTU21D;69555;53.014;8.886;2023-07-20T15:15:11;21.93;55.05
34145;HTU21D;69555;53.014;8.886;2023-07-20T15:17:39;21.85;54.94
34145;HTU21D;69555;53.014;8.886;2023-07-20T15:20:07;21.97;55.10
34145;HTU21D;69555;53.014;8.886;2023-07-20T15:22:34;21.52;53.90
34145;HTU21D;69555;53.014;8.886;2023-07-20T15:25:08;21.55;53.98